Time;durP1;ratioP1;P1;durP2;ratioP2;P2;SDS_P1;SDS_P2;PMS_P1;PMS_P2;Temp;Humidity;BMP_temperature;BMP_pressure;BME280_temperature;BME280_humidity;BME280_pressure;Samples;Min_cycle;Max_cycle;Signal;HPM_P1;HPM_P2
2021/10/18 00:00:36;;;;;;;63.08;29.50;;;;;;;6.03;91.60;100358.34;1691812;85;21924;-75
2021/10/18 00:03:43;;;;;;;64.07;31.93;;;;;;;6.04;91.65;100361.41;1692052;85;21376;-75
2021/10/18 00:06:49;;;;;;;75.42;29.87;;;;;;;6.02;91.69;100357.48;1691755;84;21336;-75
2021/10/18 00:09:53;;;;;;;62.35;31.23;;;;;;;6.03;91.71;100361.05;1692351;85;21415;-75
2021/10/18 00:13:00;;;;;;;70.05;31.30;;;;;;;6.04;91.81;100365.48;1691616;84;21194;-75
2021/10/18 00:16:08;;;;;;;72.78;29.70;;;;;;;6.02;91.73;100360.67;1691612;84;21210;-75
2021/10/18 00:19:13;;;;;;;75.37;32.20;;;;;;;6.01;91.58;100361.69;1692334;85;21384;-76
2021/10/18 00:22:18;;;;;;;59.73;30.37;;;;;;;5.99;91.49;100363.70;1693005;85;21250;-75
2021/10/18 00:25:26;;;;;;;70.25;31.23;;;;;;;5.96;91.41;100363.98;1692909;85;21899;-75
2021/10/18 00:28:32;;;;;;;74.47;33.90;;;;;;;5.89;91.26;100358.26;1691320;84;21210;-75
2021/10/18 00:31:38;;;;;;;63.70;31.05;;;;;;;5.86;91.05;100363.97;1692981;85;21202;-75
2021/10/18 00:34:46;;;;;;;61.10;32.05;;;;;;;5.77;90.66;100357.54;1692341;85;21400;-75
2021/10/18 00:37:52;;;;;;;64.05;31.23;;;;;;;5.68;90.41;100358.91;1691102;84;21334;-75
2021/10/18 00:40:58;;;;;;;69.12;34.00;;;;;;;5.60;90.39;100356.93;1684206;85;21377;-75
2021/10/18 00:44:05;;;;;;;70.97;34.55;;;;;;;5.53;90.49;100357.12;1684034;85;21321;-75
2021/10/18 00:47:11;;;;;;;59.27;30.55;;;;;;;5.47;90.77;100355.84;1740850;82;21462;-75
2021/10/18 00:50:17;;;;;;;45.73;24.45;;;;;;;5.39;90.84;100356.55;1684631;85;21389;-75
2021/10/18 00:53:23;;;;;;;30.60;17.48;;;;;;;5.29;90.81;100362.47;1740834;82;21300;-75
2021/10/18 00:56:28;;;;;;;34.38;17.20;;;;;;;5.16;91.13;100352.88;1685456;85;21358;-75
2021/10/18 00:59:34;;;;;;;33.58;17.07;;;;;;;5.02;91.52;100346.86;1740748;82;21249;-75
2021/10/18 01:02:39;;;;;;;25.27;14.98;;;;;;;4.92;92.17;100347.34;1685685;85;21377;-75
2021/10/18 01:05:45;;;;;;;25.60;14.45;;;;;;;4.86;92.86;100343.84;1739759;82;21386;-75
2021/10/18 01:08:50;;;;;;;27.20;16.30;;;;;;;4.82;93.45;100346.47;1685575;85;21386;-75
2021/10/18 01:11:55;;;;;;;30.08;14.95;;;;;;;4.80;93.93;100340.34;1739543;82;21898;-75
2021/10/18 01:15:01;;;;;;;32.33;16.90;;;;;;;4.79;94.28;100350.80;1685449;85;21822;-75
2021/10/18 01:18:05;;;;;;;29.20;14.93;;;;;;;4.80;94.60;100353.89;1740624;82;21303;-75
2021/10/18 01:21:11;;;;;;;34.40;16.48;;;;;;;4.78;94.82;100352.66;1684373;85;21348;-75
2021/10/18 01:24:17;;;;;;;33.10;15.85;;;;;;;4.79;94.97;100350.30;1740759;82;21307;-75
2021/10/18 01:27:22;;;;;;;29.37;14.95;;;;;;;4.82;95.18;100348.68;1685450;85;21203;-75
2021/10/18 01:30:28;;;;;;;37.83;18.48;;;;;;;4.88;95.42;100354.89;1740568;82;21217;-76
2021/10/18 01:33:34;;;;;;;38.98;21.42;;;;;;;4.98;95.97;100355.41;1685140;85;21750;-75
2021/10/18 01:36:39;;;;;;;32.20;19.42;;;;;;;5.15;96.45;100347.11;1740380;82;21304;-75
2021/10/18 01:39:44;;;;;;;31.73;17.52;;;;;;;5.30;96.44;100353.83;1685463;83;21338;-75
2021/10/18 01:42:51;;;;;;;32.25;17.00;;;;;;;5.39;95.96;100357.91;1740865;82;21304;-75
2021/10/18 01:45:57;;;;;;;38.78;19.62;;;;;;;5.44;95.37;100357.98;1685515;85;21204;-76
2021/10/18 01:49:03;;;;;;;31.68;16.97;;;;;;;5.47;94.87;100356.35;1740890;82;21174;-76
2021/10/18 01:52:10;;;;;;;37.88;17.02;;;;;;;5.51;94.58;100362.71;1684245;85;21239;-75
2021/10/18 01:55:16;;;;;;;29.00;15.93;;;;;;;5.54;94.26;100364.27;1740711;82;21181;-75
2021/10/18 01:58:21;;;;;;;24.65;14.70;;;;;;;5.55;93.97;100366.86;1685457;85;21901;-76
2021/10/18 02:01:26;;;;;;;28.65;13.98;;;;;;;5.54;93.64;100370.55;1739692;82;21907;-75
2021/10/18 02:04:33;;;;;;;23.90;15.38;;;;;;;5.53;93.38;100369.34;1685491;85;21364;-75
2021/10/18 02:07:38;;;;;;;25.00;14.60;;;;;;;5.52;93.10;100380.70;1740792;82;21858;-75
2021/10/18 02:10:43;;;;;;;29.35;13.48;;;;;;;5.48;92.69;100386.05;1685437;85;21361;-75
2021/10/18 02:13:48;;;;;;;24.77;14.43;;;;;;;5.43;92.33;100388.33;1739449;82;21233;-75
2021/10/18 02:16:54;;;;;;;26.35;14.78;;;;;;;5.37;92.03;100379.41;1685500;85;21306;-75
2021/10/18 02:19:59;;;;;;;25.65;14.87;;;;;;;5.31;91.75;100386.23;1740714;82;21161;-75
2021/10/18 02:23:05;;;;;;;28.85;14.60;;;;;;;5.24;91.49;100380.16;1685320;85;21841;-75
2021/10/18 02:26:10;;;;;;;27.40;13.58;;;;;;;5.15;91.26;100385.92;1740729;82;21271;-76
2021/10/18 02:29:16;;;;;;;24.45;14.05;;;;;;;5.07;91.19;100388.47;1685363;85;21754;-76
2021/10/18 02:32:22;;;;;;;31.00;15.95;;;;;;;4.97;91.22;100386.23;1739983;82;22010;-76
2021/10/18 02:35:29;;;;;;;23.85;14.10;;;;;;;4.89;91.22;100395.05;1685435;85;21215;-76
2021/10/18 02:38:33;;;;;;;24.23;14.38;;;;;;;4.81;91.33;100396.25;1741034;82;21299;-76
2021/10/18 02:41:40;;;;;;;23.50;13.95;;;;;;;4.73;91.42;100396.08;1684909;84;21286;-76
2021/10/18 02:44:45;;;;;;;27.32;14.23;;;;;;;4.65;91.62;100394.53;1739538;82;21299;-76
2021/10/18 02:47:50;;;;;;;26.87;13.95;;;;;;;4.59;91.80;100404.07;1685514;85;21203;-76
2021/10/18 02:50:55;;;;;;;26.55;15.08;;;;;;;4.52;91.91;100399.70;1740755;82;21295;-76
2021/10/18 02:54:04;;;;;;;36.65;15.70;;;;;;;4.47;92.13;100399.72;1685548;85;21251;-76
2021/10/18 02:57:08;;;;;;;27.00;13.98;;;;;;;4.42;92.31;100396.56;1739453;81;21800;-75
2021/10/18 03:00:14;;;;;;;41.25;16.23;;;;;;;4.39;92.47;100403.63;1685447;85;21353;-75
2021/10/18 03:03:20;;;;;;;28.05;15.23;;;;;;;4.34;92.69;100402.17;1739678;82;21229;-75
2021/10/18 03:06:27;;;;;;;26.95;16.10;;;;;;;4.31;92.84;100399.72;1685445;85;21242;-75
2021/10/18 03:09:31;;;;;;;27.50;16.10;;;;;;;4.30;92.94;100403.43;1740877;82;21315;-75
2021/10/18 03:12:36;;;;;;;30.72;16.70;;;;;;;4.30;93.07;100403.43;1745904;81;21769;-75
2021/10/18 03:15:42;;;;;;;32.33;16.85;;;;;;;4.28;93.16;100405.42;1740826;82;21300;-75
2021/10/18 03:18:48;;;;;;;38.92;18.15;;;;;;;4.29;93.31;100405.78;1749941;81;21316;-75
2021/10/18 03:21:55;;;;;;;45.30;18.05;;;;;;;4.31;93.45;100402.43;1740533;81;21350;-75
2021/10/18 03:25:00;;;;;;;34.05;16.73;;;;;;;4.34;93.59;100400.81;1740760;82;21308;-75
2021/10/18 03:28:06;;;;;;;30.32;16.37;;;;;;;4.39;93.63;100408.54;1740855;82;21319;-75
2021/10/18 03:31:12;;;;;;;31.25;16.02;;;;;;;4.42;93.72;100403.33;1740874;82;21300;-75
2021/10/18 03:34:18;;;;;;;31.48;16.10;;;;;;;4.45;93.80;100401.72;1759731;81;21260;-75
2021/10/18 03:37:23;;;;;;;28.55;14.28;;;;;;;4.46;93.92;100409.70;1760936;81;21324;-75
2021/10/18 03:40:29;;;;;;;28.07;13.45;;;;;;;4.51;94.03;100405.23;1759894;81;21277;-75
2021/10/18 03:43:35;;;;;;;37.05;15.03;;;;;;;4.54;94.11;100404.48;1762121;81;21918;-76
2021/10/18 03:46:40;;;;;;;31.02;14.15;;;;;;;4.58;94.10;100407.78;1759995;81;21304;-76
2021/10/18 03:49:47;;;;;;;26.90;14.18;;;;;;;4.60;94.00;100406.63;1761277;81;21299;-75
2021/10/18 03:52:53;;;;;;;26.62;12.78;;;;;;;4.61;93.87;100403.42;1762158;81;21354;-75
2021/10/18 03:56:00;;;;;;;34.78;15.08;;;;;;;4.63;93.81;100409.58;1771418;81;21839;-75
2021/10/18 03:59:06;;;;;;;34.05;15.30;;;;;;;4.64;93.69;100403.16;1770498;81;21328;-75
2021/10/18 04:02:11;;;;;;;34.08;14.58;;;;;;;4.63;93.51;100406.02;1770879;81;21296;-75
2021/10/18 04:05:18;;;;;;;31.68;13.85;;;;;;;4.61;93.19;100404.78;1771336;81;21350;-75
2021/10/18 04:08:28;;;;;;;36.73;14.38;;;;;;;4.58;92.89;100412.70;1770500;81;22179;-75
2021/10/18 04:11:38;;;;;;;32.93;14.60;;;;;;;4.56;92.62;100407.92;1771193;81;21161;-75
2021/10/18 04:14:41;;;;;;;34.48;15.30;;;;;;;4.53;92.37;100405.98;1763553;81;21330;-75
2021/10/18 04:17:47;;;;;;;34.08;13.78;;;;;;;4.50;92.19;100411.66;1771325;81;21237;-76
2021/10/18 04:23:22;;;;;;;29.67;13.55;;;;;;;4.52;91.94;100413.25;1864020;76;27975;-75
2021/10/18 04:26:27;;;;;;;27.90;12.85;;;;;;;4.51;91.97;100410.66;1817137;79;21295;-75
2021/10/18 04:29:32;;;;;;;30.00;14.05;;;;;;;4.53;92.01;100414.95;1817215;79;21288;-75
2021/10/18 04:32:38;;;;;;;29.92;12.82;;;;;;;4.58;92.05;100422.68;1815279;79;21202;-75
2021/10/18 04:35:44;;;;;;;25.20;12.73;;;;;;;4.63;91.99;100427.20;1815741;79;21192;-75
2021/10/18 04:38:49;;;;;;;33.25;13.22;;;;;;;4.68;91.88;100430.35;1824818;77;21280;-75
2021/10/18 04:41:56;;;;;;;24.57;12.75;;;;;;;4.74;91.78;100435.72;1817544;77;21243;-75
2021/10/18 04:45:01;;;;;;;24.43;12.05;;;;;;;4.79;91.61;100439.73;1816625;77;21319;-75
2021/10/18 04:48:07;;;;;;;36.38;12.45;;;;;;;4.85;91.47;100447.84;1830834;77;21295;-76
2021/10/18 04:51:14;;;;;;;27.48;13.05;;;;;;;4.91;91.35;100448.64;1836879;77;21183;-75
2021/10/18 04:54:19;;;;;;;37.17;12.55;;;;;;;4.98;91.22;100442.16;1819972;77;21264;-76
2021/10/18 04:57:25;;;;;;;25.75;12.63;;;;;;;5.03;91.04;100442.61;1817051;79;21165;-75
2021/10/18 05:00:36;;;;;;;25.52;11.83;;;;;;;5.08;90.91;100457.49;1815405;79;21321;-75
2021/10/18 05:03:41;;;;;;;27.60;12.30;;;;;;;5.08;90.66;100452.07;1783100;80;21815;-75
2021/10/18 05:06:46;;;;;;;25.55;11.48;;;;;;;5.09;90.33;100454.28;1800918;79;21232;-75
2021/10/18 05:09:51;;;;;;;26.10;10.88;;;;;;;5.04;89.95;100454.69;1814956;79;21303;-75
2021/10/18 05:12:58;;;;;;;19.90;10.65;;;;;;;5.01;89.67;100456.81;1798146;79;21258;-75
2021/10/18 05:16:04;;;;;;;18.62;10.85;;;;;;;4.96;89.44;100468.56;1813258;79;21351;-75
2021/10/18 05:19:09;;;;;;;23.27;12.05;;;;;;;4.91;89.28;100470.33;1801835;79;21283;-75
2021/10/18 05:22:15;;;;;;;20.60;11.00;;;;;;;4.86;89.23;100468.02;1794014;79;21211;-76
2021/10/18 05:25:24;;;;;;;25.52;11.18;;;;;;;4.84;89.21;100476.77;1780369;79;21287;-77
2021/10/18 05:28:29;;;;;;;23.47;11.65;;;;;;;4.85;89.41;100477.16;1788281;79;21170;-76
2021/10/18 05:31:43;;;;;;;26.50;11.00;;;;;;;4.91;89.69;100481.67;1785881;79;21291;-76
2021/10/18 05:34:48;;;;;;;26.87;10.85;;;;;;;4.97;89.83;100479.26;1782171;78;21646;-76
2021/10/18 05:37:54;;;;;;;36.20;13.03;;;;;;;5.08;89.78;100481.01;1789717;79;21369;-76
2021/10/18 05:41:04;;;;;;;30.50;12.93;;;;;;;5.17;89.42;100478.83;1779540;79;21183;-77
2021/10/18 05:44:13;;;;;;;34.18;13.32;;;;;;;5.26;88.99;100480.72;1786251;78;21554;-75
2021/10/18 05:47:18;;;;;;;30.32;11.63;;;;;;;5.36;88.49;100487.05;1786751;79;21311;-76
2021/10/18 05:50:23;;;;;;;27.67;11.53;;;;;;;5.48;88.16;100489.14;1782205;79;22265;-77
2021/10/18 05:53:34;;;;;;;25.15;10.85;;;;;;;5.62;87.90;100498.73;1774476;79;21335;-77
2021/10/18 05:56:39;;;;;;;22.95;10.80;;;;;;;5.76;87.58;100494.27;1786412;79;22387;-77
2021/10/18 05:59:44;;;;;;;26.25;9.95;;;;;;;5.92;86.93;100488.80;1792447;79;21275;-76
2021/10/18 06:02:50;;;;;;;21.73;10.20;;;;;;;6.06;85.52;100490.59;1785297;79;21210;-77
2021/10/18 06:05:55;;;;;;;23.77;10.32;;;;;;;6.20;84.27;100498.80;1777824;79;21915;-77
2021/10/18 06:09:02;;;;;;;24.55;10.25;;;;;;;6.32;83.06;100499.02;1787678;79;21174;-76
2021/10/18 06:12:08;;;;;;;17.25;9.50;;;;;;;6.45;82.00;100500.59;1780939;79;21194;-77
2021/10/18 06:15:16;;;;;;;26.85;10.48;;;;;;;6.57;81.15;100496.70;1781699;79;21842;-76
2021/10/18 06:18:23;;;;;;;25.40;9.45;;;;;;;6.72;80.44;100503.38;1782741;79;21326;-76
2021/10/18 06:21:29;;;;;;;26.80;12.80;;;;;;;6.87;79.85;100500.57;1778343;79;21300;-76
2021/10/18 06:24:34;;;;;;;35.25;14.35;;;;;;;7.00;78.79;100504.80;1778974;79;21326;-76
2021/10/18 06:27:40;;;;;;;25.85;13.00;;;;;;;7.13;78.35;100497.17;1746678;81;21547;-76
2021/10/18 06:30:45;;;;;;;27.20;12.13;;;;;;;7.25;78.11;100502.79;1784208;79;21313;-76
2021/10/18 06:33:51;;;;;;;25.62;10.60;;;;;;;7.40;77.47;100508.08;1780735;79;21827;-76
2021/10/18 06:36:56;;;;;;;26.40;9.45;;;;;;;7.52;75.92;100499.19;1781984;79;21292;-77
2021/10/18 06:40:08;;;;;;;20.23;9.63;;;;;;;7.64;75.16;100506.66;1787973;79;21197;-76
2021/10/18 06:43:13;;;;;;;20.82;10.65;;;;;;;7.75;75.40;100506.94;1750454;81;21621;-76
2021/10/18 06:46:19;;;;;;;18.90;9.85;;;;;;;7.89;74.51;100505.05;1719786;82;21284;-77
2021/10/18 06:49:25;;;;;;;20.50;9.05;;;;;;;8.05;72.71;100509.31;1724649;81;21317;-78
2021/10/18 06:52:37;;;;;;;28.60;10.45;;;;;;;8.19;71.44;100513.37;1784141;79;21162;-77
2021/10/18 06:55:40;;;;;;;14.87;8.68;;;;;;;8.30;71.29;100522.66;1777664;79;21291;-75
2021/10/18 06:58:53;;;;;;;24.37;8.78;;;;;;;8.53;71.41;100524.94;1852381;76;22275;-76
2021/10/18 07:01:58;;;;;;;26.50;9.63;;;;;;;8.61;69.65;100526.34;1799170;79;21918;-77
2021/10/18 07:05:04;;;;;;;20.05;9.25;;;;;;;8.74;68.49;100524.06;1797446;79;21307;-76
2021/10/18 07:08:10;;;;;;;24.90;9.30;;;;;;;8.85;67.82;100528.42;1794445;78;21891;-77
2021/10/18 07:11:16;;;;;;;24.75;10.80;;;;;;;8.96;68.25;100524.91;1789820;78;22340;-75
2021/10/18 07:14:22;;;;;;;20.55;8.45;;;;;;;9.05;67.31;100519.51;1795554;78;21158;-77
2021/10/18 07:17:27;;;;;;;21.35;9.65;;;;;;;9.13;66.74;100521.78;1799219;79;21188;-76
2021/10/18 07:20:32;;;;;;;22.87;9.80;;;;;;;9.21;65.89;100526.41;1801615;79;21894;-76
2021/10/18 07:23:39;;;;;;;21.07;9.38;;;;;;;9.24;65.24;100516.54;1792199;79;21220;-76
2021/10/18 07:26:47;;;;;;;16.65;8.58;;;;;;;9.25;65.93;100518.25;1787757;79;21480;-77
2021/10/18 07:29:56;;;;;;;20.88;9.03;;;;;;;9.31;65.45;100513.48;1796880;79;21224;-77
2021/10/18 07:33:01;;;;;;;17.37;8.98;;;;;;;9.37;63.94;100514.22;1798803;79;21305;-76
2021/10/18 07:36:08;;;;;;;20.37;7.92;;;;;;;9.45;60.27;100514.75;1790945;78;21344;-76
2021/10/18 07:39:15;;;;;;;22.67;11.03;;;;;;;9.56;57.66;100512.25;1802733;79;21282;-76
2021/10/18 07:42:23;;;;;;;17.65;8.10;;;;;;;9.66;58.08;100515.70;1804299;79;21842;-75
2021/10/18 07:45:30;;;;;;;20.17;8.35;;;;;;;9.75;56.92;100510.61;1800607;79;21355;-77
2021/10/18 07:48:36;;;;;;;17.15;7.15;;;;;;;9.80;53.91;100512.84;1793735;79;21318;-76
2021/10/18 07:51:42;;;;;;;17.48;7.37;;;;;;;9.84;54.62;100519.69;1801017;79;22146;-75
2021/10/18 07:54:53;;;;;;;22.35;8.03;;;;;;;9.84;53.94;100512.34;1804705;79;21307;-76
2021/10/18 07:57:57;;;;;;;20.77;7.97;;;;;;;9.86;53.80;100510.29;1794334;79;21371;-76
2021/10/18 08:01:03;;;;;;;18.45;6.58;;;;;;;9.88;53.45;100516.46;1794152;79;21303;-77
2021/10/18 08:04:08;;;;;;;18.65;6.53;;;;;;;9.91;54.39;100510.64;1789059;79;21551;-78
2021/10/18 08:07:13;;;;;;;16.62;6.97;;;;;;;9.98;53.53;100517.16;1782216;79;21266;-77
2021/10/18 08:10:25;;;;;;;18.92;8.05;;;;;;;10.04;53.47;100512.05;1790258;79;21130;-76
2021/10/18 08:13:30;;;;;;;17.87;5.87;;;;;;;10.06;52.12;100508.62;1788738;79;21295;-76
2021/10/18 08:16:37;;;;;;;16.07;6.47;;;;;;;10.09;53.05;100510.52;1780585;79;21185;-76
2021/10/18 08:19:42;;;;;;;17.73;7.67;;;;;;;10.12;52.36;100494.30;1782626;79;21310;-76
2021/10/18 08:22:48;;;;;;;16.40;6.72;;;;;;;10.15;51.67;100519.91;1781494;79;21327;-76
2021/10/18 08:25:54;;;;;;;16.05;6.53;;;;;;;10.19;51.65;100508.98;1784994;79;21790;-75
2021/10/18 08:28:58;;;;;;;16.12;7.33;;;;;;;10.21;51.54;100507.81;1784077;79;21370;-75
2021/10/18 08:32:04;;;;;;;14.63;6.95;;;;;;;10.24;50.87;100518.41;1775834;79;21350;-75
2021/10/18 08:35:11;;;;;;;17.30;7.60;;;;;;;10.28;50.46;100518.94;1773471;79;21237;-75
2021/10/18 08:42:02;;;;;;;23.15;9.75;;;;;;;10.32;51.04;100510.75;1822062;77;21771;-74
2021/10/18 08:45:02;;;;;;;17.87;9.15;;;;;;;10.40;49.77;100509.39;1816302;77;21903;-76
2021/10/18 08:48:10;;;;;;;19.80;8.55;;;;;;;10.43;49.93;100509.55;1820266;77;21184;-76
2021/10/18 08:51:14;;;;;;;21.68;8.13;;;;;;;10.41;50.22;100508.36;1779462;77;21331;-77
2021/10/18 08:54:19;;;;;;;19.30;8.48;;;;;;;10.40;50.25;100501.19;1826889;77;21297;-77
2021/10/18 08:57:25;;;;;;;18.67;8.48;;;;;;;10.39;50.25;100492.62;1819826;77;21326;-76
2021/10/18 09:00:48;;;;;;;21.23;10.05;;;;;;;10.34;50.20;100497.75;1760085;80;21340;-76
2021/10/18 09:04:01;;;;;;;17.25;9.38;;;;;;;10.35;50.43;100504.06;1785016;79;21863;-76
2021/10/18 09:07:10;;;;;;;17.50;9.55;;;;;;;10.33;50.09;100491.95;1785870;79;21267;-75
2021/10/18 09:10:19;;;;;;;19.53;9.97;;;;;;;10.28;50.43;100503.91;1781518;79;21302;-75
2021/10/18 09:13:25;;;;;;;20.62;9.58;;;;;;;10.32;50.81;100502.55;1782089;79;21192;-75
2021/10/18 09:16:37;;;;;;;15.25;8.68;;;;;;;10.38;50.29;100493.65;1786305;79;21335;-75
2021/10/18 09:19:46;;;;;;;17.98;8.00;;;;;;;10.42;50.19;100492.28;1655991;85;21214;-76
2021/10/18 09:22:52;;;;;;;18.12;8.05;;;;;;;10.47;49.71;100489.89;1687039;84;21350;-76
2021/10/18 09:25:58;;;;;;;19.05;9.68;;;;;;;10.49;49.91;100489.71;1690888;84;21342;-76
2021/10/18 09:29:04;;;;;;;18.77;8.90;;;;;;;10.56;49.45;100481.69;1691643;84;21343;-76
2021/10/18 09:32:10;;;;;;;14.85;7.70;;;;;;;10.61;49.26;100487.50;1674660;84;21292;-76
2021/10/18 09:35:19;;;;;;;18.60;8.93;;;;;;;10.67;49.49;100484.06;1694878;83;21209;-76
2021/10/18 09:38:25;;;;;;;18.12;9.05;;;;;;;10.74;49.43;100483.73;1695458;84;21304;-76
2021/10/18 09:41:34;;;;;;;14.18;8.48;;;;;;;10.86;49.12;100483.69;1690284;82;21352;-76
2021/10/18 09:45:27;;;;;;;18.67;8.43;;;;;;;10.97;48.77;100483.34;1686059;84;21328;-76
2021/10/18 10:53:53;;;;;;;19.52;8.85;;;;;;;10.61;46.91;100431.42;1715492;82;21306;-76
2021/10/18 10:57:11;;;;;;;18.70;9.80;;;;;;;10.61;46.30;100425.95;1715190;82;21325;-77
2021/10/18 11:00:12;;;;;;;14.05;8.38;;;;;;;10.56;45.72;100428.36;1717841;82;21303;-76
2021/10/18 11:03:39;;;;;;;17.30;8.33;;;;;;;10.56;45.78;100425.62;1728408;82;21315;-75
2021/10/18 11:06:55;;;;;;;22.95;9.18;;;;;;;10.53;46.28;100417.23;1727886;82;21181;-75
2021/10/18 11:10:07;;;;;;;22.80;9.63;;;;;;;10.56;46.02;100414.69;1730773;82;21306;-76
2021/10/18 11:13:14;;;;;;;23.30;10.35;;;;;;;10.59;45.32;100419.81;1727904;82;21954;-76
2021/10/18 11:16:19;;;;;;;17.15;9.73;;;;;;;10.58;45.50;100420.82;1728426;80;21310;-76
2021/10/18 11:19:25;;;;;;;22.85;9.13;;;;;;;10.54;45.66;100412.62;1731157;82;21833;-75
2021/10/18 11:22:39;;;;;;;16.52;8.45;;;;;;;10.53;45.93;100419.13;1692122;80;21287;-75
2021/10/18 11:25:46;;;;;;;20.15;8.98;;;;;;;10.55;45.80;100412.98;1732580;82;21315;-75
2021/10/18 11:28:52;;;;;;;17.92;8.73;;;;;;;10.54;45.94;100397.09;1732188;82;21318;-75
2021/10/18 11:31:59;;;;;;;24.45;11.40;;;;;;;10.53;46.14;100404.08;1734554;82;21350;-76
2021/10/18 11:35:20;;;;;;;17.50;9.33;;;;;;;10.57;45.89;100399.97;1725357;82;21237;-76
2021/10/18 11:38:26;;;;;;;14.73;8.80;;;;;;;10.56;45.75;100397.75;1756912;80;21369;-76
2021/10/18 11:41:32;;;;;;;23.62;9.00;;;;;;;10.59;45.80;100405.63;1732231;80;21203;-76
2021/10/18 11:45:02;;;;;;;18.87;8.93;;;;;;;10.61;45.92;100398.08;1745758;80;21241;-78
2021/10/18 11:48:20;;;;;;;19.57;8.48;;;;;;;10.66;45.54;100392.09;1751403;80;21194;-76
2021/10/18 11:51:27;;;;;;;17.73;8.13;;;;;;;10.65;45.52;100395.34;1753243;80;22070;-75
2021/10/18 11:54:32;;;;;;;17.92;8.08;;;;;;;10.49;45.79;100390.77;1719178;81;21958;-75
2021/10/18 11:57:42;;;;;;;19.17;8.50;;;;;;;10.40;46.14;100393.18;1735598;81;21298;-75
2021/10/18 12:00:47;;;;;;;26.15;9.48;;;;;;;10.38;46.04;100395.22;1765741;80;21282;-76
2021/10/18 12:03:53;;;;;;;24.27;9.58;;;;;;;10.35;46.21;100392.84;1745146;80;21313;-76
2021/10/18 12:06:57;;;;;;;19.32;9.45;;;;;;;10.35;46.41;100390.11;1775083;80;21357;-77
2021/10/18 12:10:23;;;;;;;17.90;8.55;;;;;;;10.36;46.32;100389.08;1720685;81;21318;-77
2021/10/18 12:13:35;;;;;;;23.83;9.48;;;;;;;10.32;46.34;100394.55;1761986;81;21187;-76
2021/10/18 12:16:40;;;;;;;14.30;7.53;;;;;;;10.23;46.62;100391.45;1759397;81;21293;-76
2021/10/18 12:19:46;;;;;;;14.87;8.25;;;;;;;10.16;46.53;100391.30;1735756;81;21179;-76
2021/10/18 12:23:13;;;;;;;19.50;8.40;;;;;;;10.11;46.21;100391.44;1760174;81;21532;-76
2021/10/18 12:26:36;;;;;;;17.75;8.33;;;;;;;10.09;46.50;100389.41;1751933;80;21333;-75
2021/10/18 12:29:44;;;;;;;16.87;6.90;;;;;;;10.13;46.76;100390.78;1751410;81;21306;-75
2021/10/18 12:32:50;;;;;;;13.72;7.40;;;;;;;10.17;45.79;100388.05;1753612;81;21341;-75
2021/10/18 12:36:06;;;;;;;19.30;9.08;;;;;;;10.17;45.89;100386.67;1760026;80;21266;-75
2021/10/18 12:39:12;;;;;;;16.75;8.28;;;;;;;10.15;45.95;100390.08;1781793;79;21850;-75
2021/10/18 12:42:33;;;;;;;14.80;8.00;;;;;;;10.17;45.89;100387.53;1781812;79;21192;-75
2021/10/18 12:45:43;;;;;;;17.32;7.25;;;;;;;10.21;46.14;100388.05;1779962;79;21294;-75
2021/10/18 12:48:48;;;;;;;12.45;6.75;;;;;;;10.24;46.15;100388.56;1767056;80;21185;-75
2021/10/18 12:51:56;;;;;;;15.28;7.37;;;;;;;10.26;46.18;100387.53;1763194;80;21275;-75
2021/10/18 12:55:01;;;;;;;20.08;7.83;;;;;;;10.28;46.06;100384.98;1777953;80;21292;-75
2021/10/18 12:58:09;;;;;;;17.73;7.58;;;;;;;10.31;45.90;100387.90;1785007;79;21806;-75
2021/10/18 13:01:21;;;;;;;16.48;7.67;;;;;;;10.32;46.09;100385.50;1749626;81;21210;-76
2021/10/18 13:04:28;;;;;;;15.60;7.42;;;;;;;10.29;45.53;100392.66;1789263;79;21173;-76
2021/10/18 13:07:34;;;;;;;13.00;6.85;;;;;;;10.23;45.22;100388.20;1766346;79;21286;-76
2021/10/18 13:10:43;;;;;;;16.93;7.80;;;;;;;10.18;45.25;100393.84;1754196;81;21312;-76
2021/10/18 13:13:49;;;;;;;20.30;6.72;;;;;;;10.12;45.35;100391.81;1732695;82;21367;-76
2021/10/18 13:16:57;;;;;;;14.33;7.72;;;;;;;10.06;45.64;100389.73;1796296;79;21518;-76
2021/10/18 13:20:05;;;;;;;11.53;6.10;;;;;;;10.01;45.86;100392.13;1780224;80;21418;-75
2021/10/18 13:23:10;;;;;;;14.93;7.10;;;;;;;9.94;46.11;100395.55;1786643;79;21839;-76
2021/10/18 13:26:16;;;;;;;14.83;6.83;;;;;;;9.87;46.25;100390.41;1785366;80;21358;-76
2021/10/18 13:29:23;;;;;;;15.65;6.28;;;;;;;9.81;46.39;100382.91;1771255;80;21779;-76
2021/10/18 13:32:28;;;;;;;12.25;5.97;;;;;;;9.77;46.52;100385.63;1788400;79;21184;-76
2021/10/18 13:35:35;;;;;;;22.75;5.80;;;;;;;9.75;46.38;100388.20;1773352;80;21275;-76
2021/10/18 13:38:41;;;;;;;16.55;6.60;;;;;;;9.73;46.10;100382.89;1773883;79;21338;-76
2021/10/18 13:41:48;;;;;;;15.10;7.20;;;;;;;9.77;46.46;100385.63;1774501;80;21236;-76
2021/10/18 13:44:54;;;;;;;16.67;8.13;;;;;;;9.81;46.77;100396.56;1754448;81;21839;-76
2021/10/18 13:48:01;;;;;;;21.60;8.50;;;;;;;9.82;46.97;100398.78;1741441;82;21916;-76
2021/10/18 13:51:06;;;;;;;26.07;10.58;;;;;;;9.82;46.83;100401.52;1741280;82;21317;-76
2021/10/18 13:54:12;;;;;;;24.77;10.82;;;;;;;9.82;46.66;100406.98;1742245;82;21257;-76
2021/10/18 13:57:17;;;;;;;21.95;10.72;;;;;;;9.79;46.59;100405.97;1743412;82;21855;-76
2021/10/18 14:00:24;;;;;;;26.62;11.57;;;;;;;9.73;46.75;100398.77;1742551;82;21357;-76
2021/10/18 14:03:32;;;;;;;28.92;12.75;;;;;;;9.67;47.00;100398.59;1742941;82;21484;-76
2021/10/18 14:06:38;;;;;;;24.00;9.98;;;;;;;9.61;47.08;100400.64;1743912;82;21224;-76
2021/10/18 14:09:44;;;;;;;20.77;10.18;;;;;;;9.55;46.93;100398.08;1743647;82;21319;-76
2021/10/18 14:12:49;;;;;;;27.50;9.50;;;;;;;9.51;47.17;100414.45;1742198;81;21294;-77
2021/10/18 14:15:57;;;;;;;19.30;7.50;;;;;;;9.47;47.15;100406.24;1746993;81;21162;-76
2021/10/18 14:19:03;;;;;;;14.55;5.30;;;;;;;9.43;47.33;100402.98;1743773;81;21217;-76
2021/10/18 14:22:08;;;;;;;12.10;5.00;;;;;;;9.37;46.98;100408.27;1741323;81;21307;-75
2021/10/18 14:25:14;;;;;;;12.95;5.50;;;;;;;9.29;47.08;100400.89;1731743;83;21346;-76
2021/10/18 14:28:20;;;;;;;12.23;4.87;;;;;;;9.20;47.24;100410.08;1745130;81;21887;-76
2021/10/18 14:31:26;;;;;;;12.28;5.28;;;;;;;9.09;47.43;100400.84;1742434;81;21282;-76
2021/10/18 14:34:31;;;;;;;19.87;5.67;;;;;;;8.99;47.62;100406.91;1740681;81;21187;-76
2021/10/18 14:37:38;;;;;;;12.25;4.42;;;;;;;8.86;47.66;100405.50;1736228;81;22537;-76
2021/10/18 14:40:47;;;;;;;12.80;4.75;;;;;;;8.78;47.90;100416.36;1739309;81;21775;-76
2021/10/18 14:43:53;;;;;;;13.18;4.87;;;;;;;8.67;48.13;100418.87;1742288;81;21171;-76
2021/10/18 14:46:58;;;;;;;11.18;5.83;;;;;;;8.56;48.29;100410.97;1734889;81;21171;-76
2021/10/18 14:50:04;;;;;;;9.70;4.75;;;;;;;8.48;48.50;100419.59;1738946;81;21279;-76
2021/10/18 14:53:09;;;;;;;11.95;4.83;;;;;;;8.37;48.87;100418.82;1737642;81;21188;-77
2021/10/18 14:56:17;;;;;;;12.98;5.03;;;;;;;8.28;49.11;100425.22;1753837;81;21196;-76
2021/10/18 14:59:23;;;;;;;10.82;4.08;;;;;;;8.19;49.27;100423.45;1756155;81;21362;-76
2021/10/18 15:02:28;;;;;;;8.18;4.10;;;;;;;8.11;49.49;100427.46;1755159;81;21391;-76
2021/10/18 15:05:33;;;;;;;14.95;5.65;;;;;;;8.03;49.61;100428.75;1754932;81;21315;-76
2021/10/18 15:08:39;;;;;;;13.03;4.83;;;;;;;7.94;49.67;100428.66;1754972;81;21556;-77
2021/10/18 15:11:44;;;;;;;14.43;5.05;;;;;;;7.85;49.85;100432.32;1754949;81;21283;-76
2021/10/18 15:14:50;;;;;;;16.30;5.67;;;;;;;7.77;50.00;100434.99;1755933;81;21251;-76
2021/10/18 15:17:57;;;;;;;16.25;4.97;;;;;;;7.67;50.20;100436.94;1755924;81;21323;-76
2021/10/18 15:21:03;;;;;;;14.87;4.50;;;;;;;7.57;50.39;100440.20;1756168;81;21354;-76
2021/10/18 15:24:09;;;;;;;13.35;5.12;;;;;;;7.49;50.57;100441.50;1755952;81;21759;-76
2021/10/18 15:27:14;;;;;;;15.35;5.30;;;;;;;7.40;50.87;100448.20;1756368;81;21839;-76
2021/10/18 15:30:21;;;;;;;19.30;5.65;;;;;;;7.31;51.09;100450.48;1756408;81;21700;-76
2021/10/18 15:33:28;;;;;;;10.93;5.42;;;;;;;7.23;51.50;100451.73;1755293;81;21841;-76